Time;durP1;ratioP1;P1;durP2;ratioP2;P2;SDS_P1;SDS_P2;PMS_P1;PMS_P2;Temp;Humidity;BMP_temperature;BMP_pressure;BME280_temperature;BME280_humidity;BME280_pressure;Samples;Min_cycle;Max_cycle;Signal;HPM_P1;HPM_P2
2023/03/29 00:01:02;;;;;;;8.73;3.15;;;6.20;99.90;;;;;;5037174;28;20049;-76
2023/03/29 00:03:29;;;;;;;5.30;2.75;;;6.30;99.90;;;;;;5054566;28;20045;-76
2023/03/29 00:06:04;;;;;;;6.13;2.75;;;6.30;99.90;;;;;;5054552;28;20098;-76
2023/03/29 00:08:31;;;;;;;6.18;3.03;;;6.30;99.90;;;;;;5036823;28;20040;-76
2023/03/29 00:10:58;;;;;;;5.75;2.42;;;6.30;99.90;;;;;;5020273;28;20041;-76
2023/03/29 00:13:25;;;;;;;6.93;3.08;;;6.30;99.90;;;;;;5036796;28;20427;-76
2023/03/29 00:15:51;;;;;;;7.72;3.55;;;6.30;99.90;;;;;;5019774;28;20129;-76
2023/03/29 00:18:16;;;;;;;5.15;3.22;;;6.30;99.90;;;;;;5036798;28;20045;-76
2023/03/29 00:20:42;;;;;;;5.70;3.28;;;6.30;99.90;;;;;;5020109;28;20102;-76
2023/03/29 00:23:07;;;;;;;5.40;3.10;;;6.30;99.90;;;;;;5036530;28;20127;-76
2023/03/29 00:25:33;;;;;;;3.97;2.55;;;6.30;99.90;;;;;;5035939;28;20033;-76
2023/03/29 00:27:59;;;;;;;4.75;3.35;;;6.20;99.90;;;;;;5036325;28;20047;-76
2023/03/29 00:30:24;;;;;;;6.03;3.10;;;6.20;99.90;;;;;;5036328;28;20033;-77
2023/03/29 00:32:50;;;;;;;6.43;3.00;;;6.30;99.90;;;;;;5036280;28;20041;-76
2023/03/29 00:35:16;;;;;;;6.53;2.60;;;6.20;99.90;;;;;;5035677;28;20084;-76
2023/03/29 00:37:41;;;;;;;4.63;2.83;;;6.10;99.90;;;;;;5036220;28;20076;-77
2023/03/29 00:40:10;;;;;;;5.93;2.55;;;6.20;99.90;;;;;;5036224;28;20048;-76
2023/03/29 00:42:36;;;;;;;5.55;3.08;;;6.10;99.90;;;;;;5036084;28;20505;-76
2023/03/29 00:45:10;;;;;;;5.45;3.20;;;6.10;99.90;;;;;;5036011;28;20508;-76
2023/03/29 00:47:52;;;;;;;5.07;3.05;;;6.10;99.90;;;;;;5036053;28;20044;-77
2023/03/29 00:50:28;;;;;;;4.35;2.80;;;6.20;99.90;;;;;;5036143;28;20041;-77
2023/03/29 00:52:57;;;;;;;5.18;2.63;;;6.20;99.90;;;;;;5036203;28;20049;-77
2023/03/29 00:55:24;;;;;;;14.52;3.83;;;6.20;99.90;;;;;;5019136;28;20045;-77
2023/03/29 00:57:52;;;;;;;5.75;2.78;;;6.20;99.90;;;;;;5035869;28;20123;-77
2023/03/29 01:00:23;;;;;;;6.43;3.00;;;6.20;99.90;;;;;;5036165;28;20134;-76
2023/03/29 01:02:58;;;;;;;5.90;3.42;;;6.20;99.90;;;;;;5035858;28;20418;-77
2023/03/29 01:05:39;;;;;;;6.10;3.28;;;6.20;99.90;;;;;;5035427;28;20037;-77
2023/03/29 01:08:26;;;;;;;6.03;3.03;;;6.20;99.90;;;;;;5035970;28;20491;-77
2023/03/29 01:10:55;;;;;;;4.95;3.70;;;6.10;99.90;;;;;;5035674;28;20041;-77
2023/03/29 01:13:38;;;;;;;5.82;3.40;;;6.10;99.90;;;;;;5035606;28;20488;-77
2023/03/29 01:16:05;;;;;;;4.90;3.20;;;6.10;99.90;;;;;;5018866;28;20037;-77
2023/03/29 01:18:32;;;;;;;4.72;3.45;;;6.10;99.90;;;;;;5035418;28;20128;-77
2023/03/29 01:21:15;;;;;;;5.63;3.60;;;6.10;99.90;;;;;;5035752;28;20052;-77
2023/03/29 01:23:53;;;;;;;4.90;4.30;;;6.10;99.90;;;;;;5053193;28;20045;-77
2023/03/29 01:26:34;;;;;;;7.68;3.03;;;6.10;99.90;;;;;;5035027;28;20033;-77
2023/03/29 01:29:08;;;;;;;5.00;3.30;;;6.10;99.90;;;;;;5019167;28;20094;-77
2023/03/29 01:31:43;;;;;;;8.88;3.45;;;6.10;99.90;;;;;;5018928;28;20033;-77
2023/03/29 01:34:24;;;;;;;5.65;3.70;;;6.10;99.90;;;;;;5035206;28;20119;-77
2023/03/29 01:37:03;;;;;;;5.47;3.60;;;6.10;99.90;;;;;;5035061;28;20033;-76
2023/03/29 01:39:29;;;;;;;4.25;3.15;;;6.10;99.90;;;;;;5053093;28;20509;-76
2023/03/29 01:42:39;;;;;;;5.43;4.00;;;6.10;99.90;;;;;;5035034;28;20040;-76
2023/03/29 01:45:11;;;;;;;4.95;3.63;;;6.10;99.90;;;;;;5034922;28;20037;-77
2023/03/29 01:47:59;;;;;;;7.32;3.80;;;6.10;99.90;;;;;;5034532;28;20070;-76
2023/03/29 01:50:43;;;;;;;5.68;4.30;;;6.10;99.90;;;;;;5035045;28;20037;-77
2023/03/29 01:53:34;;;;;;;8.55;4.07;;;6.10;99.90;;;;;;5034840;28;20041;-76
2023/03/29 01:56:06;;;;;;;9.45;4.45;;;6.20;99.90;;;;;;5034500;28;20048;-76
2023/03/29 01:58:37;;;;;;;7.47;4.57;;;6.10;99.90;;;;;;5018301;28;20090;-77
2023/03/29 02:01:09;;;;;;;6.22;4.70;;;6.10;99.90;;;;;;5034712;28;20041;-76
2023/03/29 02:03:41;;;;;;;9.65;4.80;;;6.10;99.90;;;;;;5034442;28;20048;-77
2023/03/29 02:06:10;;;;;;;7.45;4.50;;;6.10;99.90;;;;;;5039517;28;20052;-76
2023/03/29 02:08:39;;;;;;;8.40;6.07;;;6.20;99.90;;;;;;5054491;28;20036;-77
2023/03/29 02:11:06;;;;;;;7.05;4.15;;;6.20;99.90;;;;;;5037698;28;20079;-77
2023/03/29 02:13:33;;;;;;;8.27;4.53;;;6.20;99.90;;;;;;5054604;28;20048;-77
2023/03/29 02:16:01;;;;;;;7.65;4.93;;;6.30;99.90;;;;;;5053980;28;20513;-77
2023/03/29 02:18:28;;;;;;;7.25;4.68;;;6.20;99.90;;;;;;5072229;28;20048;-77
2023/03/29 02:20:56;;;;;;;10.23;4.63;;;6.20;99.90;;;;;;5054202;28;20450;-77
2023/03/29 02:23:44;;;;;;;7.63;4.28;;;6.20;99.90;;;;;;5054190;28;20049;-77
2023/03/29 02:26:10;;;;;;;6.45;4.47;;;6.20;99.90;;;;;;5053800;28;20047;-77
2023/03/29 02:28:36;;;;;;;8.70;4.38;;;6.20;99.90;;;;;;5054191;28;20044;-77
2023/03/29 02:31:14;;;;;;;7.25;4.70;;;6.20;99.90;;;;;;5054148;28;20092;-77
2023/03/29 02:34:01;;;;;;;8.80;5.00;;;6.20;99.90;;;;;;5053900;28;20048;-77
2023/03/29 02:36:40;;;;;;;9.13;4.50;;;6.20;99.90;;;;;;5037252;28;20064;-77
2023/03/29 02:39:08;;;;;;;10.07;4.63;;;6.20;99.90;;;;;;5053941;28;20503;-77
2023/03/29 02:41:36;;;;;;;7.93;4.50;;;6.20;99.90;;;;;;5053779;28;20051;-77
2023/03/29 02:44:06;;;;;;;6.55;4.68;;;6.20;99.90;;;;;;5053644;28;20044;-77
2023/03/29 02:46:32;;;;;;;8.43;5.15;;;6.20;99.90;;;;;;5053601;28;20538;-77
2023/03/29 02:48:58;;;;;;;9.52;4.95;;;6.20;99.90;;;;;;5053852;28;20072;-77
2023/03/29 02:51:29;;;;;;;12.75;5.57;;;6.20;99.90;;;;;;5053738;28;20523;-77
2023/03/29 02:54:08;;;;;;;7.88;5.20;;;6.20;99.90;;;;;;5037292;28;20050;-77
2023/03/29 02:56:42;;;;;;;11.52;5.78;;;6.20;99.90;;;;;;5053524;28;20127;-77
2023/03/29 02:59:08;;;;;;;7.63;5.15;;;6.20;99.90;;;;;;5053872;28;20048;-77
2023/03/29 03:01:35;;;;;;;8.85;5.63;;;6.20;99.90;;;;;;5037178;28;20087;-77
2023/03/29 03:04:02;;;;;;;8.38;5.03;;;6.20;99.90;;;;;;5053437;28;20053;-77
2023/03/29 03:06:30;;;;;;;5.95;4.55;;;6.20;99.90;;;;;;5053689;28;20396;-77
2023/03/29 03:08:56;;;;;;;8.95;5.30;;;6.20;99.90;;;;;;5053511;28;20393;-77
2023/03/29 03:11:22;;;;;;;9.45;5.63;;;6.20;99.90;;;;;;5053628;28;20048;-77
2023/03/29 03:13:48;;;;;;;8.25;5.43;;;6.20;99.90;;;;;;5053409;28;20519;-77
2023/03/29 03:16:14;;;;;;;9.20;5.28;;;6.20;99.90;;;;;;5051979;28;20048;-77
2023/03/29 03:18:40;;;;;;;9.10;5.43;;;6.20;99.90;;;;;;5054408;28;20051;-77
2023/03/29 03:21:06;;;;;;;9.88;5.75;;;6.30;99.90;;;;;;5053413;28;20045;-77
2023/03/29 03:23:31;;;;;;;9.38;6.05;;;6.30;99.90;;;;;;5054665;28;20052;-77
2023/03/29 03:25:57;;;;;;;9.35;5.60;;;6.30;99.90;;;;;;5054939;28;20037;-77
2023/03/29 03:28:23;;;;;;;10.00;5.55;;;6.20;99.90;;;;;;5055385;28;20052;-77
2023/03/29 03:30:49;;;;;;;9.40;5.50;;;6.20;99.90;;;;;;5055651;28;20047;-77
2023/03/29 03:33:15;;;;;;;9.63;6.15;;;6.30;99.90;;;;;;5038735;28;20314;-77
2023/03/29 03:35:41;;;;;;;10.25;5.70;;;6.30;99.90;;;;;;5037847;28;20037;-77
2023/03/29 03:38:07;;;;;;;9.25;5.78;;;6.20;99.90;;;;;;5071452;28;20488;-77
2023/03/29 03:40:33;;;;;;;8.50;5.88;;;6.20;99.90;;;;;;5071439;28;20036;-77
2023/03/29 03:42:59;;;;;;;10.50;6.47;;;6.30;99.90;;;;;;5053214;28;20040;-77
2023/03/29 03:45:24;;;;;;;7.38;5.05;;;6.20;99.90;;;;;;5070919;28;20098;-77
2023/03/29 03:47:50;;;;;;;9.88;6.35;;;6.30;99.90;;;;;;5071169;28;20564;-77
2023/03/29 03:50:17;;;;;;;11.85;7.35;;;6.30;99.90;;;;;;5053159;28;20132;-77
2023/03/29 03:52:43;;;;;;;9.20;6.35;;;6.30;99.90;;;;;;5071214;28;20133;-77
2023/03/29 03:55:09;;;;;;;11.13;7.28;;;6.30;99.90;;;;;;5071098;28;20119;-77
2023/03/29 03:57:36;;;;;;;11.25;7.20;;;6.30;99.90;;;;;;5071121;28;20059;-77
2023/03/29 04:00:25;;;;;;;10.00;6.88;;;6.20;99.90;;;;;;5071109;28;20462;-77
2023/03/29 04:02:53;;;;;;;12.77;7.65;;;6.30;99.90;;;;;;5070442;28;20060;-77
2023/03/29 04:05:18;;;;;;;9.88;6.70;;;6.30;99.90;;;;;;5070866;28;20493;-77
2023/03/29 04:07:44;;;;;;;15.07;7.60;;;6.20;99.90;;;;;;5053013;28;20120;-77
2023/03/29 04:10:10;;;;;;;13.52;8.43;;;6.20;99.90;;;;;;5055545;28;20400;-77
2023/03/29 04:12:37;;;;;;;12.73;8.65;;;6.20;99.90;;;;;;5040327;28;20048;-77
2023/03/29 04:15:03;;;;;;;12.45;8.55;;;6.20;99.90;;;;;;5056298;28;20085;-77
2023/03/29 04:17:28;;;;;;;9.38;7.45;;;6.30;99.90;;;;;;5056362;28;20036;-77
2023/03/29 04:19:54;;;;;;;12.70;8.00;;;6.30;99.90;;;;;;5074629;28;20036;-77
2023/03/29 04:22:20;;;;;;;12.90;8.82;;;6.30;99.90;;;;;;5074304;28;20052;-77
2023/03/29 04:24:45;;;;;;;11.63;8.50;;;6.30;99.90;;;;;;5056050;28;20043;-77
2023/03/29 04:27:11;;;;;;;13.30;8.70;;;6.30;99.90;;;;;;5064367;22;20068;-70
2023/03/29 04:29:36;;;;;;;13.50;8.32;;;6.30;99.90;;;;;;5018493;28;20061;-70
2023/03/29 04:32:02;;;;;;;15.40;9.07;;;6.40;99.90;;;;;;5034414;28;20068;-70
2023/03/29 04:34:28;;;;;;;14.00;9.75;;;6.30;99.90;;;;;;5034373;28;20049;-68
2023/03/29 04:36:53;;;;;;;13.15;8.45;;;6.40;99.90;;;;;;5034013;28;20065;-68
2023/03/29 04:39:19;;;;;;;13.07;9.02;;;6.30;99.90;;;;;;5016746;28;20382;-68
2023/03/29 04:41:44;;;;;;;15.57;9.15;;;6.40;99.90;;;;;;5034595;28;20079;-68
2023/03/29 04:44:11;;;;;;;13.88;8.95;;;6.30;99.90;;;;;;5034324;28;20053;-68
2023/03/29 04:46:38;;;;;;;16.33;9.73;;;6.40;99.90;;;;;;5033649;28;20050;-68
2023/03/29 04:49:05;;;;;;;16.42;9.75;;;6.30;99.90;;;;;;5034191;28;20037;-68
2023/03/29 04:51:31;;;;;;;14.65;9.30;;;6.30;99.90;;;;;;5034218;28;20069;-68
2023/03/29 04:53:56;;;;;;;16.25;9.75;;;6.30;99.90;;;;;;5034090;28;20104;-68
2023/03/29 04:56:22;;;;;;;15.05;10.38;;;6.30;99.90;;;;;;5034548;28;20041;-69
2023/03/29 04:58:48;;;;;;;16.30;9.77;;;6.30;99.90;;;;;;5034023;28;20068;-68
2023/03/29 05:01:14;;;;;;;15.13;8.98;;;6.30;99.90;;;;;;5034875;28;20041;-68
2023/03/29 05:03:40;;;;;;;13.82;9.15;;;6.30;99.90;;;;;;5034627;28;20042;-68
2023/03/29 05:06:09;;;;;;;14.73;9.75;;;6.30;99.90;;;;;;5032442;28;20041;-68
2023/03/29 05:08:38;;;;;;;17.58;10.43;;;6.30;99.90;;;;;;5033949;28;20045;-68
2023/03/29 05:11:09;;;;;;;15.35;10.25;;;6.30;99.90;;;;;;5033591;28;20172;-68
2023/03/29 05:13:36;;;;;;;19.50;10.80;;;6.30;99.90;;;;;;5033592;28;20102;-69
2023/03/29 05:16:02;;;;;;;16.40;10.18;;;6.40;99.90;;;;;;5033671;28;20049;-69
2023/03/29 05:18:28;;;;;;;17.15;11.02;;;6.30;99.90;;;;;;5016009;28;20045;-70
2023/03/29 05:20:54;;;;;;;13.52;10.10;;;6.40;99.90;;;;;;5014889;28;20044;-71
2023/03/29 05:23:21;;;;;;;15.00;10.32;;;6.40;99.90;;;;;;5034753;28;20046;-70
2023/03/29 05:25:47;;;;;;;15.55;9.85;;;6.30;99.90;;;;;;5015317;28;20111;-70
2023/03/29 05:28:14;;;;;;;14.85;10.13;;;6.40;99.90;;;;;;5000178;28;20537;-70
2023/03/29 05:30:39;;;;;;;19.30;10.05;;;6.40;99.90;;;;;;5016430;28;20038;-70
2023/03/29 05:33:05;;;;;;;18.13;9.18;;;6.40;99.90;;;;;;5034079;28;20559;-71
2023/03/29 05:35:31;;;;;;;15.32;9.38;;;6.50;99.90;;;;;;5032787;28;20067;-70
2023/03/29 05:37:57;;;;;;;14.23;9.25;;;6.50;99.90;;;;;;5016382;28;20497;-70
2023/03/29 05:40:26;;;;;;;13.18;8.35;;;6.50;99.90;;;;;;5034213;28;20124;-70
2023/03/29 05:42:52;;;;;;;16.60;10.00;;;6.50;99.90;;;;;;5016548;28;20045;-70
2023/03/29 05:45:18;;;;;;;13.13;10.32;;;6.50;99.90;;;;;;5033714;28;20043;-70
2023/03/29 05:47:43;;;;;;;15.85;9.50;;;6.50;99.90;;;;;;4999521;28;20076;-71
2023/03/29 05:50:10;;;;;;;16.30;9.95;;;6.50;99.90;;;;;;5015999;28;20093;-71
2023/03/29 05:52:36;;;;;;;15.75;8.95;;;6.50;99.90;;;;;;5015911;28;20040;-71
2023/03/29 05:55:03;;;;;;;14.45;9.98;;;6.50;99.90;;;;;;5015487;28;20045;-71
2023/03/29 05:57:28;;;;;;;17.70;10.27;;;6.50;99.90;;;;;;5032848;28;20064;-71
2023/03/29 05:59:55;;;;;;;15.68;10.18;;;6.50;99.90;;;;;;5032997;28;20045;-70
2023/03/29 06:02:21;;;;;;;16.83;10.02;;;6.50;99.90;;;;;;5015776;28;20512;-72
2023/03/29 06:04:46;;;;;;;18.10;10.60;;;6.50;99.90;;;;;;5032694;28;20033;-71
2023/03/29 06:07:12;;;;;;;17.02;10.35;;;6.50;99.90;;;;;;5032920;28;20034;-71
2023/03/29 06:09:38;;;;;;;13.73;9.75;;;6.50;99.90;;;;;;5014817;28;20044;-71
2023/03/29 06:12:05;;;;;;;15.30;8.80;;;6.60;99.90;;;;;;5032424;28;20125;-70
2023/03/29 06:14:31;;;;;;;13.95;9.82;;;6.60;99.90;;;;;;5032136;28;20515;-70
2023/03/29 06:16:57;;;;;;;13.43;10.25;;;6.60;99.90;;;;;;5032523;28;20033;-70
2023/03/29 06:19:23;;;;;;;17.13;9.77;;;6.60;99.90;;;;;;5015466;28;20507;-70
2023/03/29 06:21:51;;;;;;;14.25;10.18;;;6.60;99.90;;;;;;5032421;28;20053;-70
2023/03/29 06:24:16;;;;;;;16.52;10.13;;;6.60;99.90;;;;;;5006362;28;20390;-70
2023/03/29 06:26:42;;;;;;;18.08;10.27;;;6.60;99.90;;;;;;5013069;28;20048;-71
2023/03/29 06:29:09;;;;;;;18.70;10.15;;;6.70;99.90;;;;;;5032094;28;20593;-70
2023/03/29 06:31:35;;;;;;;16.90;10.45;;;6.70;99.90;;;;;;5032212;28;20390;-71
2023/03/29 06:34:01;;;;;;;15.35;9.75;;;6.70;99.90;;;;;;5028799;28;20497;-71
2023/03/29 06:36:27;;;;;;;14.95;10.18;;;6.70;99.90;;;;;;5010739;28;20099;-70
2023/03/29 06:38:52;;;;;;;15.65;10.18;;;6.70;99.90;;;;;;5031949;28;20037;-70
2023/03/29 06:41:18;;;;;;;22.05;12.50;;;6.80;99.90;;;;;;5031867;28;20041;-70
2023/03/29 06:43:44;;;;;;;13.90;10.18;;;6.90;99.90;;;;;;5031484;28;20416;-70
2023/03/29 06:46:10;;;;;;;17.55;10.00;;;6.90;99.90;;;;;;5031643;28;20037;-71
2023/03/29 06:48:37;;;;;;;14.20;9.73;;;6.90;99.90;;;;;;5031845;28;20116;-70
2023/03/29 06:51:04;;;;;;;17.52;10.60;;;7.00;99.90;;;;;;5031672;28;20392;-71
2023/03/29 06:53:30;;;;;;;13.50;9.68;;;7.00;99.90;;;;;;5031589;28;20077;-70
2023/03/29 06:55:55;;;;;;;14.43;9.35;;;7.00;99.90;;;;;;5031587;28;20073;-71
2023/03/29 06:58:21;;;;;;;13.95;9.77;;;7.10;99.90;;;;;;5031647;28;20400;-70
2023/03/29 07:00:47;;;;;;;15.18;10.52;;;7.10;99.90;;;;;;5013829;28;20579;-70
2023/03/29 07:03:19;;;;;;;20.00;11.20;;;7.20;99.90;;;;;;5013593;28;20053;-70
2023/03/29 07:05:46;;;;;;;15.55;11.18;;;7.20;99.90;;;;;;5031339;28;20091;-70
2023/03/29 07:08:14;;;;;;;14.85;10.63;;;7.20;99.90;;;;;;5014063;28;20045;-70
2023/03/29 07:10:46;;;;;;;15.68;10.25;;;7.20;99.90;;;;;;5031499;28;20041;-70
2023/03/29 07:13:12;;;;;;;19.25;11.05;;;7.20;99.90;;;;;;5008014;28;20103;-70
2023/03/29 07:15:39;;;;;;;28.88;16.77;;;7.30;99.90;;;;;;5001664;28;20048;-70
2023/03/29 07:18:05;;;;;;;18.05;11.95;;;7.40;99.90;;;;;;4996833;28;20375;-70
2023/03/29 07:20:32;;;;;;;15.00;10.95;;;7.40;99.90;;;;;;4999484;28;20086;-70
2023/03/29 07:22:58;;;;;;;15.30;10.48;;;7.40;99.90;;;;;;5020993;28;20046;-70
2023/03/29 07:25:25;;;;;;;13.20;9.77;;;7.40;99.90;;;;;;5007820;28;20168;-70
2023/03/29 07:27:53;;;;;;;19.20;10.15;;;7.40;99.90;;;;;;5013552;28;20038;-71
2023/03/29 07:30:21;;;;;;;18.17;10.40;;;7.40;99.90;;;;;;5022441;28;20539;-70
2023/03/29 07:32:50;;;;;;;15.38;11.00;;;7.40;99.90;;;;;;5025795;28;20574;-72
2023/03/29 07:35:16;;;;;;;14.30;10.15;;;7.50;99.90;;;;;;5030791;28;20045;-70
2023/03/29 07:37:44;;;;;;;14.65;10.43;;;7.50;99.90;;;;;;5013493;28;20045;-70
2023/03/29 07:40:17;;;;;;;20.15;10.80;;;7.60;99.90;;;;;;5013857;28;20404;-70
2023/03/29 07:42:44;;;;;;;16.63;10.82;;;7.70;99.90;;;;;;5031390;28;20093;-71
2023/03/29 07:45:12;;;;;;;14.25;9.55;;;7.80;99.90;;;;;;5015592;28;20060;-71
2023/03/29 07:47:41;;;;;;;16.15;10.75;;;7.80;99.90;;;;;;5034991;28;20037;-71
2023/03/29 07:50:08;;;;;;;16.65;9.98;;;7.80;99.90;;;;;;5035083;28;20468;-68
2023/03/29 07:52:35;;;;;;;16.23;9.05;;;7.80;99.90;;;;;;5034999;28;20489;-68
2023/03/29 07:55:01;;;;;;;14.50;10.48;;;7.80;99.90;;;;;;5034792;28;20095;-68
2023/03/29 07:57:26;;;;;;;14.75;9.93;;;7.80;99.90;;;;;;5017573;28;20053;-69
2023/03/29 07:59:53;;;;;;;17.30;9.73;;;7.80;99.90;;;;;;5017189;28;20517;-68
2023/03/29 08:02:19;;;;;;;15.40;9.48;;;7.80;99.90;;;;;;5034603;28;20049;-68
2023/03/29 08:04:45;;;;;;;13.32;10.38;;;7.90;99.90;;;;;;5034767;28;20045;-68
2023/03/29 08:07:12;;;;;;;14.85;9.60;;;7.80;99.90;;;;;;5034825;28;20099;-68
2023/03/29 08:09:37;;;;;;;13.70;9.20;;;7.80;99.90;;;;;;5034857;28;20116;-68
2023/03/29 08:12:04;;;;;;;15.48;10.00;;;7.80;99.90;;;;;;5023923;28;20605;-68
2023/03/29 08:14:30;;;;;;;14.05;9.85;;;7.80;99.90;;;;;;5016399;28;20041;-68
2023/03/29 08:16:55;;;;;;;14.38;9.65;;;7.90;99.90;;;;;;5014558;28;20040;-68
2023/03/29 08:19:21;;;;;;;16.08;10.02;;;7.90;99.90;;;;;;5014939;28;20042;-68
2023/03/29 08:21:47;;;;;;;13.18;10.13;;;8.00;99.90;;;;;;5014811;28;20038;-68
2023/03/29 08:24:12;;;;;;;11.98;8.70;;;8.00;99.90;;;;;;5014581;28;20046;-68
2023/03/29 08:26:38;;;;;;;13.07;8.38;;;8.10;99.90;;;;;;5014315;28;20176;-68
2023/03/29 08:29:04;;;;;;;16.40;8.90;;;8.10;99.90;;;;;;5018114;28;20045;-68
2023/03/29 08:31:30;;;;;;;20.75;11.70;;;8.10;99.90;;;;;;5024347;28;20040;-68
2023/03/29 08:34:01;;;;;;;58.55;34.60;;;8.10;99.90;;;;;;5030443;28;20037;-69
2023/03/29 08:36:27;;;;;;;18.20;12.05;;;8.20;99.90;;;;;;5022442;28;20079;-69
2023/03/29 08:38:52;;;;;;;15.70;10.75;;;8.30;99.90;;;;;;5034328;28;20116;-69
2023/03/29 08:41:55;;;;;;;15.57;9.95;;;8.30;99.90;;;;;;5034036;28;20506;-68
2023/03/29 08:44:33;;;;;;;13.88;9.38;;;8.50;99.90;;;;;;5034299;28;20045;-68
2023/03/29 08:47:14;;;;;;;13.85;9.05;;;8.50;99.90;;;;;;5034138;28;20090;-69
2023/03/29 08:49:42;;;;;;;13.75;8.88;;;8.70;99.90;;;;;;5034251;28;20033;-69
2023/03/29 08:52:20;;;;;;;12.07;8.52;;;8.80;99.90;;;;;;5033955;28;20458;-69
2023/03/29 08:54:50;;;;;;;12.75;7.90;;;9.00;99.90;;;;;;5033661;28;20069;-71
2023/03/29 08:57:20;;;;;;;14.27;8.80;;;9.00;99.90;;;;;;5016482;28;20037;-69
2023/03/29 08:59:51;;;;;;;12.15;7.95;;;9.00;99.90;;;;;;5016125;28;20038;-69
2023/03/29 09:02:26;;;;;;;11.02;8.60;;;9.00;99.90;;;;;;5033673;28;20505;-69
2023/03/29 09:04:58;;;;;;;12.55;8.52;;;9.10;99.90;;;;;;5033525;28;20036;-70
2023/03/29 09:07:25;;;;;;;14.68;8.75;;;9.20;99.90;;;;;;5033800;28;20041;-70
2023/03/29 09:09:52;;;;;;;11.73;8.15;;;9.30;99.90;;;;;;5033667;28;20041;-69
2023/03/29 09:12:45;;;;;;;13.77;8.10;;;9.50;99.90;;;;;;5016095;28;20037;-70
2023/03/29 09:15:29;;;;;;;13.07;8.25;;;9.70;99.90;;;;;;5033105;28;20045;-71
2023/03/29 09:18:00;;;;;;;13.90;7.43;;;9.90;99.90;;;;;;5033987;28;20041;-71
2023/03/29 09:20:32;;;;;;;16.35;8.13;;;9.80;99.90;;;;;;5033716;28;20042;-70
2023/03/29 09:23:22;;;;;;;14.52;8.50;;;9.80;99.90;;;;;;5033276;28;20045;-70
2023/03/29 09:25:53;;;;;;;16.60;9.25;;;9.70;99.90;;;;;;5015081;28;20033;-70
2023/03/29 09:28:33;;;;;;;17.42;9.90;;;9.80;99.90;;;;;;5015508;28;20069;-70
2023/03/29 09:31:17;;;;;;;15.25;8.75;;;9.90;99.90;;;;;;5015518;28;20041;-70
2023/03/29 09:33:56;;;;;;;15.80;8.45;;;9.90;99.90;;;;;;5028750;28;20125;-70
2023/03/29 09:36:56;;;;;;;19.17;9.45;;;10.00;99.90;;;;;;5030714;28;20501;-71
2023/03/29 09:39:22;;;;;;;14.50;8.90;;;10.10;99.90;;;;;;5010117;28;20057;-71
2023/03/29 09:41:53;;;;;;;14.80;10.57;;;10.20;99.90;;;;;;5013238;28;20077;-71
2023/03/29 09:44:27;;;;;;;13.05;8.55;;;10.30;99.90;;;;;;4978916;28;20081;-71
2023/03/29 09:46:57;;;;;;;17.80;9.20;;;10.40;99.90;;;;;;4998953;28;20112;-72
2023/03/29 09:49:27;;;;;;;16.98;9.43;;;10.40;99.90;;;;;;4982277;28;20081;-72
2023/03/29 09:51:58;;;;;;;15.00;8.63;;;10.50;99.90;;;;;;4980428;28;20037;-72
2023/03/29 09:54:24;;;;;;;17.77;10.77;;;10.50;99.90;;;;;;4997243;28;20053;-68
2023/03/29 09:56:51;;;;;;;16.88;10.35;;;10.60;99.90;;;;;;4995660;28;20449;-69
2023/03/29 09:59:17;;;;;;;13.13;9.63;;;10.70;99.90;;;;;;4995660;28;20049;-69
2023/03/29 10:01:45;;;;;;;16.23;8.55;;;10.80;99.90;;;;;;5014510;28;20053;-69
2023/03/29 10:04:12;;;;;;;17.95;9.50;;;10.90;99.90;;;;;;5024477;28;20045;-69
2023/03/29 10:06:48;;;;;;;18.30;9.43;;;11.10;99.90;;;;;;5031050;28;20046;-69
2023/03/29 10:09:21;;;;;;;20.42;10.45;;;11.10;99.90;;;;;;5031948;28;20029;-69
2023/03/29 10:11:50;;;;;;;;;;;11.30;99.90;;;;;;5032819;28;20038;-69
2023/03/29 10:14:19;;;;;;;15.85;9.23;;;11.40;99.90;;;;;;5032293;28;19967;-69
2023/03/29 10:16:46;;;;;;;23.95;10.80;;;11.50;99.90;;;;;;5032245;28;20099;-69
2023/03/29 10:19:19;;;;;;;22.48;12.95;;;11.50;99.90;;;;;;5014452;28;20057;-69
2023/03/29 10:21:47;;;;;;;26.92;14.45;;;11.60;99.90;;;;;;5032264;28;20045;-70
2023/03/29 10:24:21;;;;;;;18.27;9.48;;;11.60;99.90;;;;;;5014288;28;20050;-68
2023/03/29 10:26:48;;;;;;;15.60;9.30;;;11.60;99.90;;;;;;5049150;22;20125;-70
2023/03/29 10:29:14;;;;;;;16.00;8.75;;;11.70;99.90;;;;;;5012339;28;20314;-70
2023/03/29 10:31:41;;;;;;;19.38;9.80;;;11.80;99.90;;;;;;5012329;28;20084;-69
2023/03/29 10:34:12;;;;;;;14.98;8.55;;;11.90;99.90;;;;;;5012122;28;20509;-70
2023/03/29 10:36:41;;;;;;;14.82;9.05;;;11.90;99.90;;;;;;4994194;28;20065;-70
2023/03/29 10:39:09;;;;;;;17.38;9.90;;;11.90;99.90;;;;;;5012070;28;20065;-69
2023/03/29 10:41:35;;;;;;;16.65;9.60;;;11.80;99.90;;;;;;5012323;28;20122;-70
2023/03/29 10:44:01;;;;;;;15.07;10.45;;;11.80;99.90;;;;;;5012035;28;20478;-70
2023/03/29 10:46:38;;;;;;;27.52;15.48;;;11.70;99.90;;;;;;5011959;28;20041;-70
2023/03/29 10:49:04;;;;;;;59.38;38.80;;;11.70;99.90;;;;;;5011962;28;20125;-69
2023/03/29 10:51:33;;;;;;;30.63;17.77;;;11.70;99.90;;;;;;4994385;28;20066;-70
2023/03/29 10:53:59;;;;;;;17.52;10.63;;;11.70;99.90;;;;;;5012140;28;20041;-70
2023/03/29 10:56:41;;;;;;;14.35;11.02;;;11.70;99.90;;;;;;4994328;28;20038;-70
2023/03/29 10:59:30;;;;;;;19.65;10.85;;;11.70;99.90;;;;;;5011826;28;20056;-70
2023/03/29 11:02:14;;;;;;;16.23;10.52;;;11.70;99.90;;;;;;5012022;28;20037;-70
2023/03/29 11:04:55;;;;;;;;;;;11.70;99.90;;;;;;4994660;28;20058;-70
2023/03/29 11:07:34;;;;;;;15.45;10.13;;;11.60;99.90;;;;;;4994222;28;19924;-69
2023/03/29 11:10:18;;;;;;;17.45;9.93;;;11.70;99.90;;;;;;5011752;28;20613;-70
2023/03/29 11:13:07;;;;;;;16.85;10.23;;;11.70;99.90;;;;;;5011917;28;20057;-70
2023/03/29 11:15:58;;;;;;;19.55;11.30;;;11.80;99.90;;;;;;5011630;28;20042;-70
2023/03/29 11:18:36;;;;;;;17.80;10.85;;;11.90;99.90;;;;;;5003032;28;20050;-72
2023/03/29 11:21:29;;;;;;;16.92;10.63;;;12.10;99.90;;;;;;5015828;28;20045;-72
2023/03/29 11:24:00;;;;;;;19.10;10.85;;;12.30;99.90;;;;;;5015663;28;20041;-72
2023/03/29 11:27:07;;;;;;;15.50;9.40;;;12.40;99.90;;;;;;5015456;28;20042;-72
2023/03/29 11:29:43;;;;;;;16.73;10.45;;;12.70;99.90;;;;;;4938942;29;20130;-72
2023/03/29 11:32:26;;;;;;;17.45;10.40;;;12.80;99.90;;;;;;5009882;28;20053;-71
2023/03/29 11:35:17;;;;;;;13.80;10.27;;;13.00;99.90;;;;;;5015404;28;20046;-72
2023/03/29 11:37:49;;;;;;;15.32;10.20;;;13.00;99.90;;;;;;5015806;28;20030;-73
2023/03/29 11:40:39;;;;;;;16.52;9.60;;;13.10;99.90;;;;;;5015610;28;20529;-72
2023/03/29 11:43:18;;;;;;;16.70;10.73;;;13.10;99.90;;;;;;5015461;28;20053;-72
2023/03/29 11:45:54;;;;;;;17.10;11.02;;;13.10;99.90;;;;;;5015304;28;20406;-72
2023/03/29 11:48:28;;;;;;;17.60;10.27;;;13.10;99.90;;;;;;5015476;28;20505;-72
2023/03/29 11:51:02;;;;;;;15.10;11.07;;;13.00;99.90;;;;;;5017866;28;20116;-71
2023/03/29 11:53:35;;;;;;;20.45;14.60;;;13.00;99.90;;;;;;5025700;28;20034;-71
2023/03/29 11:56:09;;;;;;;66.88;43.60;;;13.10;99.90;;;;;;5034577;28;20048;-72
2023/03/29 11:58:40;;;;;;;12.27;10.32;;;13.00;99.90;;;;;;5034953;28;20073;-73
2023/03/29 12:01:11;;;;;;;16.40;10.57;;;13.00;99.90;;;;;;5035026;28;20041;-73
2023/03/29 12:03:52;;;;;;;13.63;9.73;;;13.00;99.90;;;;;;5034746;28;20048;-73
2023/03/29 12:06:34;;;;;;;12.68;9.75;;;13.00;99.90;;;;;;5016807;28;20040;-73
2023/03/29 12:09:20;;;;;;;15.90;9.85;;;13.00;99.90;;;;;;5034970;28;20079;-73
2023/03/29 12:11:55;;;;;;;16.25;10.30;;;13.00;99.90;;;;;;5034724;28;20030;-72
2023/03/29 12:15:01;;;;;;;15.27;10.30;;;13.00;99.90;;;;;;5034318;28;20132;-72
2023/03/29 12:17:42;;;;;;;13.00;10.27;;;13.20;99.90;;;;;;5021191;28;20050;-72
2023/03/29 12:20:26;;;;;;;14.32;9.50;;;13.20;99.90;;;;;;5014918;28;20045;-73
2023/03/29 12:22:53;;;;;;;13.43;9.77;;;13.20;99.90;;;;;;5014739;28;20038;-73
2023/03/29 12:25:25;;;;;;;12.32;9.85;;;13.20;99.90;;;;;;5014406;28;20033;-73
2023/03/29 12:27:58;;;;;;;11.20;9.65;;;13.20;99.90;;;;;;4996366;28;20041;-75
2023/03/29 12:30:57;;;;;;;11.80;9.35;;;13.30;99.90;;;;;;4996104;28;20107;-75
2023/03/29 12:33:37;;;;;;;12.35;9.00;;;13.50;99.90;;;;;;4997031;28;20065;-76
2023/03/29 12:36:05;;;;;;;12.65;8.52;;;13.70;99.90;;;;;;4996765;28;20046;-76
2023/03/29 12:38:33;;;;;;;14.55;8.43;;;13.80;99.90;;;;;;4997126;28;20045;-76
2023/03/29 12:41:02;;;;;;;14.27;9.05;;;13.90;99.90;;;;;;4997147;28;20096;-75
2023/03/29 12:43:31;;;;;;;13.55;9.20;;;13.90;99.90;;;;;;5001600;28;20046;-78
2023/03/29 12:46:05;;;;;;;11.70;9.27;;;13.90;99.90;;;;;;5001735;28;20069;-78
2023/03/29 12:48:31;;;;;;;11.70;8.98;;;14.00;99.90;;;;;;4997837;28;20033;-79
2023/03/29 12:51:01;;;;;;;12.25;8.15;;;14.00;99.90;;;;;;4997005;28;20145;-78
2023/03/29 12:53:51;;;;;;;12.20;8.43;;;14.10;99.90;;;;;;4996826;28;20062;-75
2023/03/29 12:56:20;;;;;;;12.55;8.38;;;14.00;99.90;;;;;;4997096;28;21362;-76
2023/03/29 12:58:58;;;;;;;11.13;7.47;;;13.90;99.90;;;;;;4997474;28;20046;-76
2023/03/29 13:01:32;;;;;;;11.88;8.70;;;13.90;99.90;;;;;;4997325;28;20045;-77
2023/03/29 13:04:00;;;;;;;14.30;8.52;;;13.90;99.90;;;;;;5013871;28;20037;-76